createdAt,value
2019-05-17T00:29:39.678Z,41.13
2019-05-17T00:59:47.365Z,36.03
2019-05-17T01:30:02.651Z,36.35
2019-05-17T02:00:09.659Z,40.20
2019-05-17T02:30:14.467Z,45.90
2019-05-17T03:00:17.222Z,40.03
2019-05-17T03:30:25.248Z,40.58
2019-05-17T04:00:24.694Z,42.05
2019-05-17T04:30:27.304Z,48.60
2019-05-17T05:00:29.929Z,42.25
2019-05-17T05:30:32.534Z,41.98
2019-05-17T06:00:35.246Z,43.02
2019-05-17T06:30:42.706Z,42.03
2019-05-17T07:00:46.938Z,38.10
2019-05-17T07:30:50.389Z,40.23
2019-05-17T08:00:53.132Z,37.58
2019-05-17T08:30:55.750Z,26.12
2019-05-17T09:01:01.011Z,28.75
2019-05-17T09:31:03.637Z,24.98
2019-05-17T10:01:06.261Z,17.70
2019-05-17T10:31:11.310Z,19.75
2019-05-17T11:01:14.241Z,19.23
2019-05-17T11:31:16.865Z,20.08
2019-05-17T12:01:19.481Z,21.55
2019-05-17T12:31:22.093Z,22.42
2019-05-17T13:01:24.719Z,18.95
2019-05-17T13:31:27.354Z,18.62
2019-05-17T14:01:29.966Z,22.13
2019-05-17T14:31:32.770Z,19.30
2019-05-17T15:01:38.304Z,15.58
2019-05-17T15:31:40.947Z,19.55
2019-05-17T16:01:43.580Z,15.93
2019-05-17T16:31:49.306Z,18.15
2019-05-17T17:01:51.998Z,17.23
2019-05-17T17:31:54.630Z,21.70
2019-05-17T18:01:58.042Z,17.32
2019-05-17T18:32:00.792Z,19.92
2019-05-17T19:02:05.589Z,30.12
2019-05-17T19:32:08.274Z,40.45
2019-05-17T20:02:12.132Z,30.20
2019-05-17T20:32:15.000Z,41.70
2019-05-17T21:02:17.622Z,32.80
2019-05-17T21:32:20.305Z,37.13
2019-05-17T22:02:23.041Z,28.10
2019-05-17T22:32:25.624Z,25.12
2019-05-17T23:02:30.319Z,25.72
2019-05-17T23:32:32.928Z,25.62
